Time;durP1;ratioP1;P1;durP2;ratioP2;P2;SDS_P1;SDS_P2;PMS_P1;PMS_P2;Temp;Humidity;BMP_temperature;BMP_pressure;BME280_temperature;BME280_humidity;BME280_pressure;Samples;Min_cycle;Max_cycle;Signal;HPM_P1;HPM_P2
2023/12/26 00:01:30;;;;;;;;;;;;;;;;;;4993137;28;19925;-73
2023/12/26 00:03:56;;;;;;;;;;;;;;;;;;4975444;28;19979;-73
2023/12/26 00:06:22;;;;;;;;;;;;;;;;;;4986214;28;19949;-73
2023/12/26 00:08:48;;;;;;;;;;;;;;;;;;5004996;28;20350;-73
2023/12/26 00:11:15;;;;;;;;;;;;;;;;;;4985295;28;19921;-73
2023/12/26 00:13:40;;;;;;;;;;;;;;;;;;5012546;28;19929;-73
2023/12/26 00:16:06;;;;;;;;;;;;;;;;;;4975258;28;19925;-73
2023/12/26 00:18:32;;;;;;;;;;;;;;;;;;4992375;28;19928;-73
2023/12/26 00:20:58;;;;;;;;;;;;;;;;;;4988841;28;19931;-73
2023/12/26 00:23:24;;;;;;;;;;;;;;;;;;4985994;28;19961;-74
2023/12/26 00:25:50;;;;;;;;;;;;;;;;;;4992403;28;20354;-74
2023/12/26 00:28:19;;;;;;;;;;;;;;;;;;5004350;28;19926;-73
2023/12/26 00:30:45;;;;;;;;;;;;;;;;;;4986865;28;20516;-73
2023/12/26 00:33:11;;;;;;;;;;;;;;;;;;5001360;28;19922;-73
2023/12/26 00:35:37;;;;;;;;;;;;;;;;;;4971578;28;19933;-73
2023/12/26 00:38:03;;;;;;;;;;;;;;;;;;4993095;28;19958;-73
2023/12/26 00:40:29;;;;;;;;;;;;;;;;;;4980349;28;19968;-73
2023/12/26 00:42:54;;;;;;;;;;;;;;;;;;4993356;28;19933;-73
2023/12/26 00:45:22;;;;;;;;;;;;;;;;;;4992231;28;20309;-73
2023/12/26 00:47:48;;;;;;;;;;;;;;;;;;4998884;28;20324;-73
2023/12/26 00:50:16;;;;;;;;;;;;;;;;;;4997858;28;19932;-73
2023/12/26 00:52:42;;;;;;;;;;;;;;;;;;5019338;28;19929;-73
2023/12/26 00:55:08;;;;;;;;;;;;;;;;;;4993129;28;19971;-72
2023/12/26 00:57:34;;;;;;;;;;;;;;;;;;5000804;28;19948;-73
2023/12/26 01:00:00;;;;;;;;;;;;;;;;;;4991429;28;19964;-74
2023/12/26 01:02:26;;;;;;;;;;;;;;;;;;4976250;28;20015;-73
2023/12/26 01:04:52;;;;;;;;;;;;;;;;;;4991089;28;20309;-74
2023/12/26 01:07:18;;;;;;;;;;;;;;;;;;4996170;28;20454;-74
2023/12/26 01:09:44;;;;;;;;;;;;;;;;;;5005288;28;19925;-73
2023/12/26 01:12:10;;;;;;;;;;;;;;;;;;4992613;28;22405;-73
2023/12/26 01:14:36;;;;;;;;;;;;;;;;;;5009127;28;20409;-73
2023/12/26 01:17:02;;;;;;;;;;;;;;;;;;5009005;28;20458;-74
2023/12/26 01:19:28;;;;;;;;;;;;;;;;;;5006427;28;19987;-74
2023/12/26 01:21:54;;;;;;;;;;;;;;;;;;5007089;28;19972;-74
2023/12/26 01:24:19;;;;;;;;;;;;;;;;;;4993221;28;19937;-74
2023/12/26 01:26:45;;;;;;;;;;;;;;;;;;5003745;28;19921;-73
2023/12/26 01:29:11;;;;;;;;;;;;;;;;;;4975680;28;19937;-74
2023/12/26 01:31:37;;;;;;;;;;;;;;;;;;4998881;28;20563;-74
2023/12/26 01:34:03;;;;;;;;;;;;;;;;;;5012004;28;19922;-73
2023/12/26 01:36:29;;;;;;;;;;;;;;;;;;4999708;28;19929;-73
2023/12/26 01:38:56;;;;;;;;;;;;;;;;;;5001521;28;19925;-74
2023/12/26 01:41:22;;;;;;;;;;;;;;;;;;5009095;28;20540;-73
2023/12/26 01:43:48;;;;;;;;;;;;;;;;;;4982825;28;19926;-73
2023/12/26 01:46:14;;;;;;;;;;;;;;;;;;4988805;28;19925;-73
2023/12/26 01:48:40;;;;;;;;;;;;;;;;;;4993449;28;19932;-73
2023/12/26 01:51:05;;;;;;;;;;;;;;;;;;5000700;28;19922;-74
2023/12/26 01:53:33;;;;;;;;;;;;;;;;;;4993715;28;19926;-74
2023/12/26 01:55:59;;;;;;;;;;;;;;;;;;4991105;28;20041;-74
2023/12/26 01:58:25;;;;;;;;;;;;;;;;;;4987110;28;20008;-73
2023/12/26 02:00:51;;;;;;;;;;;;;;;;;;4980022;28;19928;-74
2023/12/26 02:03:17;;;;;;;;;;;;;;;;;;5000184;28;20007;-73
2023/12/26 02:05:43;;;;;;;;;;;;;;;;;;5009293;28;20497;-74
2023/12/26 02:08:09;;;;;;;;;;;;;;;;;;4990773;28;19925;-74
2023/12/26 02:10:35;;;;;;;;;;;;;;;;;;4986466;28;20415;-73
2023/12/26 02:13:01;;;;;;;;;;;;;;;;;;5008363;28;19938;-73
2023/12/26 02:15:27;;;;;;;;;;;;;;;;;;4995684;28;19936;-74
2023/12/26 02:17:53;;;;;;;;;;;;;;;;;;4985179;28;19926;-74
2023/12/26 02:20:19;;;;;;;;;;;;;;;;;;4982044;28;19927;-73
2023/12/26 02:22:45;;;;;;;;;;;;;;;;;;4981720;28;19926;-74
2023/12/26 02:25:12;;;;;;;;;;;;;;;;;;4999406;28;19934;-73
2023/12/26 02:27:38;;;;;;;;;;;;;;;;;;4983213;28;19929;-74
2023/12/26 02:30:05;;;;;;;;;;;;;;;;;;5004095;28;19937;-74
2023/12/26 02:32:31;;;;;;;;;;;;;;;;;;4996949;28;20008;-74
2023/12/26 02:35:00;;;;;;;;;;;;;;;;;;4987298;28;20049;-73
2023/12/26 02:37:26;;;;;;;;;;;;;;;;;;5001410;28;20422;-74
2023/12/26 02:39:52;;;;;;;;;;;;;;;;;;5004369;28;19921;-73
2023/12/26 02:42:18;;;;;;;;;;;;;;;;;;5006107;28;20001;-74
2023/12/26 02:44:44;;;;;;;;;;;;;;;;;;4992752;28;19929;-73
2023/12/26 02:47:10;;;;;;;;;;;;;;;;;;4991529;28;19952;-74
2023/12/26 02:49:36;;;;;;;;;;;;;;;;;;4982893;28;20303;-74
2023/12/26 02:52:01;;;;;;;;;;;;;;;;;;5002267;28;19929;-74
2023/12/26 02:54:27;;;;;;;;;;;;;;;;;;5003017;28;19929;-74
2023/12/26 02:56:53;;;;;;;;;;;;;;;;;;4991942;28;19925;-74
2023/12/26 02:59:19;;;;;;;;;;;;;;;;;;4979293;28;20367;-74
2023/12/26 03:01:45;;;;;;;;;;;;;;;;;;4971694;28;19933;-74
2023/12/26 03:04:11;;;;;;;;;;;;;;;;;;5011897;28;19925;-74
2023/12/26 03:06:37;;;;;;;;;;;;;;;;;;5012361;28;19940;-74
2023/12/26 03:09:05;;;;;;;;;;;;;;;;;;5001590;28;19925;-74
2023/12/26 03:11:31;;;;;;;;;;;;;;;;;;5006517;28;19932;-73
2023/12/26 03:13:57;;;;;;;;;;;;;;;;;;4987437;28;19926;-73
2023/12/26 03:16:23;;;;;;;;;;;;;;;;;;4994318;28;20398;-72
2023/12/26 03:18:49;;;;;;;;;;;;;;;;;;4991917;28;19928;-73
2023/12/26 03:21:15;;;;;;;;;;;;;;;;;;4981775;28;20008;-74
2023/12/26 03:23:41;;;;;;;;;;;;;;;;;;4993202;28;20053;-73
2023/12/26 03:26:07;;;;;;;;;;;;;;;;;;4978185;28;19957;-73
2023/12/26 03:28:34;;;;;;;;;;;;;;;;;;4984818;28;20561;-72
2023/12/26 03:31:00;;;;;;;;;;;;;;;;;;4989556;28;19930;-72
2023/12/26 03:33:26;;;;;;;;;;;;;;;;;;4975626;28;19947;-73
2023/12/26 03:35:52;;;;;;;;;;;;;;;;;;4992157;28;20402;-73
2023/12/26 03:38:18;;;;;;;;;;;;;;;;;;4995079;28;19972;-73
2023/12/26 03:40:43;;;;;;;;;;;;;;;;;;4996672;28;19928;-73
2023/12/26 03:43:09;;;;;;;;;;;;;;;;;;4997252;28;20013;-73
2023/12/26 03:45:35;;;;;;;;;;;;;;;;;;4985708;28;20356;-73
2023/12/26 03:48:02;;;;;;;;;;;;;;;;;;5005223;28;19956;-73
2023/12/26 03:50:28;;;;;;;;;;;;;;;;;;4977771;28;19933;-73
2023/12/26 03:52:54;;;;;;;;;;;;;;;;;;4992483;28;19921;-73
2023/12/26 03:55:20;;;;;;;;;;;;;;;;;;5003917;28;19964;-72
2023/12/26 03:57:46;;;;;;;;;;;;;;;;;;4995840;28;19926;-72
2023/12/26 04:00:12;;;;;;;;;;;;;;;;;;4976347;28;19936;-73
2023/12/26 04:02:40;;;;;;;;;;;;;;;;;;5006831;28;19925;-73
2023/12/26 04:05:06;;;;;;;;;;;;;;;;;;4996459;28;19971;-72
2023/12/26 04:07:32;;;;;;;;;;;;;;;;;;5013779;28;20347;-73
2023/12/26 04:09:58;;;;;;;;;;;;;;;;;;5004750;28;20036;-73
2023/12/26 04:12:24;;;;;;;;;;;;;;;;;;5013509;28;19956;-74
2023/12/26 04:14:50;;;;;;;;;;;;;;;;;;4980054;28;20012;-73
2023/12/26 04:17:16;;;;;;;;;;;;;;;;;;5006072;28;19928;-72
2023/12/26 04:19:42;;;;;;;;;;;;;;;;;;5008742;28;20409;-72
2023/12/26 04:22:09;;;;;;;;;;;;;;;;;;4996462;28;19925;-73
2023/12/26 04:24:36;;;;;;;;;;;;;;;;;;5008616;28;19949;-72
2023/12/26 04:27:02;;;;;;;;;;;;;;;;;;5002510;28;20386;-73
2023/12/26 04:29:28;;;;;;;;;;;;;;;;;;4992631;28;19925;-73
2023/12/26 04:31:54;;;;;;;;;;;;;;;;;;4993943;28;19925;-73
2023/12/26 04:34:19;;;;;;;;;;;;;;;;;;4990851;28;19940;-72
2023/12/26 04:36:45;;;;;;;;;;;;;;;;;;5013139;28;20008;-73
2023/12/26 04:39:11;;;;;;;;;;;;;;;;;;4990018;28;19952;-73
2023/12/26 04:41:37;;;;;;;;;;;;;;;;;;4991439;28;19933;-73
2023/12/26 04:44:03;;;;;;;;;;;;;;;;;;4990884;28;19925;-74
2023/12/26 04:46:29;;;;;;;;;;;;;;;;;;4995257;28;19976;-72
2023/12/26 04:48:55;;;;;;;;;;;;;;;;;;5006309;28;19930;-72
2023/12/26 04:51:21;;;;;;;;;;;;;;;;;;4988298;28;19928;-73
2023/12/26 04:53:47;;;;;;;;;;;;;;;;;;4997168;28;19930;-71
2023/12/26 04:56:13;;;;;;;;;;;;;;;;;;4990249;28;20024;-72
2023/12/26 04:58:39;;;;;;;;;;;;;;;;;;4991693;28;20008;-73
2023/12/26 05:01:05;;;;;;;;;;;;;;;;;;4975677;28;20465;-73
2023/12/26 05:03:30;;;;;;;;;;;;;;;;;;4982599;28;20383;-71
2023/12/26 05:05:56;;;;;;;;;;;;;;;;;;4995065;28;20829;-72
2023/12/26 05:08:22;;;;;;;;;;;;;;;;;;4996232;28;19925;-73
2023/12/26 05:10:48;;;;;;;;;;;;;;;;;;5001213;28;19926;-72
2023/12/26 05:13:14;;;;;;;;;;;;;;;;;;5009264;28;19960;-71
2023/12/26 05:15:40;;;;;;;;;;;;;;;;;;4991728;28;20260;-72
2023/12/26 05:18:06;;;;;;;;;;;;;;;;;;5005002;28;19926;-71
2023/12/26 05:20:32;;;;;;;;;;;;;;;;;;4984032;28;19926;-72
2023/12/26 05:22:58;;;;;;;;;;;;;;;;;;4999716;28;19971;-72
2023/12/26 05:25:25;;;;;;;;;;;;;;;;;;4985953;28;19973;-72
2023/12/26 05:27:51;;;;;;;;;;;;;;;;;;5003149;28;19929;-72
2023/12/26 05:30:17;;;;;;;;;;;;;;;;;;4992394;28;19968;-72
2023/12/26 05:32:43;;;;;;;;;;;;;;;;;;4994306;28;19926;-72
2023/12/26 05:35:09;;;;;;;;;;;;;;;;;;4985615;28;20276;-71
2023/12/26 05:37:35;;;;;;;;;;;;;;;;;;4989326;28;20020;-71
2023/12/26 05:40:01;;;;;;;;;;;;;;;;;;5007776;28;20016;-70
2023/12/26 05:42:27;;;;;;;;;;;;;;;;;;4987270;28;19930;-72
2023/12/26 05:44:56;;;;;;;;;;;;;;;;;;5005675;28;20286;-72
2023/12/26 05:47:22;;;;;;;;;;;;;;;;;;5001552;28;19922;-72
2023/12/26 05:49:48;;;;;;;;;;;;;;;;;;5008515;28;20410;-72
2023/12/26 05:52:13;;;;;;;;;;;;;;;;;;5007732;28;20004;-72
2023/12/26 05:54:40;;;;;;;;;;;;;;;;;;5012005;28;19983;-72
2023/12/26 05:57:06;;;;;;;;;;;;;;;;;;5001357;28;19921;-71
2023/12/26 05:59:32;;;;;;;;;;;;;;;;;;4993547;28;19922;-72
2023/12/26 06:01:57;;;;;;;;;;;;;;;;;;5004812;28;19943;-71
2023/12/26 06:04:23;;;;;;;;;;;;;;;;;;4987844;28;19922;-73
2023/12/26 06:06:49;;;;;;;;;;;;;;;;;;4995861;28;19957;-72
2023/12/26 06:09:16;;;;;;;;;;;;;;;;;;5006562;28;20601;-73
2023/12/26 06:11:42;;;;;;;;;;;;;;;;;;5010359;28;19922;-72
2023/12/26 06:14:08;;;;;;;;;;;;;;;;;;5012012;28;20307;-71
2023/12/26 06:16:34;;;;;;;;;;;;;;;;;;4986656;28;19925;-73
2023/12/26 06:19:00;;;;;;;;;;;;;;;;;;5009927;28;20008;-73
2023/12/26 06:21:26;;;;;;;;;;;;;;;;;;4996501;28;19968;-73
2023/12/26 06:23:52;;;;;;;;;;;;;;;;;;5010794;28;19925;-73
2023/12/26 06:26:18;;;;;;;;;;;;;;;;;;4993836;28;20345;-73
2023/12/26 06:28:44;;;;;;;;;;;;;;;;;;4994868;28;19965;-73
2023/12/26 06:31:10;;;;;;;;;;;;;;;;;;4977683;28;19925;-73
2023/12/26 06:33:36;;;;;;;;;;;;;;;;;;4988973;28;19929;-73
2023/12/26 06:36:02;;;;;;;;;;;;;;;;;;4989919;28;19925;-72
2023/12/26 06:38:28;;;;;;;;;;;;;;;;;;4983869;28;20371;-72
2023/12/26 06:40:53;;;;;;;;;;;;;;;;;;5004110;28;19922;-72
2023/12/26 06:43:19;;;;;;;;;;;;;;;;;;5008150;28;19937;-72
2023/12/26 06:45:52;;;;;;;;;;;;;;;;;;5112190;27;19912;-73
2023/12/26 06:48:19;;;;;;;;;;;;;;;;;;5113806;28;20402;-73
2023/12/26 06:50:45;;;;;;;;;;;;;;;;;;5109166;28;20295;-73
2023/12/26 06:53:11;;;;;;;;;;;;;;;;;;5101668;27;19971;-73
2023/12/26 06:55:37;;;;;;;;;;;;;;;;;;5129228;22;20000;-71
2023/12/26 06:58:04;;;;;;;;;;;;;;;;;;5110796;28;19928;-71
2023/12/26 07:00:30;;;;;;;;;;;;;;;;;;5130365;27;20025;-71
2023/12/26 07:02:56;;;;;;;;;;;;;;;;;;5117702;27;20359;-70
2023/12/26 07:05:22;;;;;;;;;;;;;;;;;;5109810;28;19977;-70
2023/12/26 07:07:47;;;;;;;;;;;;;;;;;;5115732;28;20447;-69
2023/12/26 07:10:13;;;;;;;;;;;;;;;;;;5126372;28;20388;-70
2023/12/26 07:12:39;;;;;;;;;;;;;;;;;;5112730;27;19919;-71
2023/12/26 07:15:05;;;;;;;;;;;;;;;;;;5129031;28;20252;-71
2023/12/26 07:17:31;;;;;;;;;;;;;;;;;;5126351;27;19926;-71
2023/12/26 07:19:57;;;;;;;;;;;;;;;;;;5132605;27;20260;-71
2023/12/26 07:22:23;;;;;;;;;;;;;;;;;;5138770;27;19927;-71
2023/12/26 07:24:49;;;;;;;;;;;;;;;;;;5124684;27;19923;-71
2023/12/26 07:27:15;;;;;;;;;;;;;;;;;;5090351;28;20405;-71
2023/12/26 07:29:41;;;;;;;;;;;;;;;;;;5132509;27;19931;-70
2023/12/26 07:32:07;;;;;;;;;;;;;;;;;;5128768;27;19923;-70
2023/12/26 07:34:33;;;;;;;;;;;;;;;;;;5128967;27;19923;-70
2023/12/26 07:36:59;;;;;;;;;;;;;;;;;;5123402;27;19959;-70
2023/12/26 07:39:25;;;;;;;;;;;;;;;;;;5129808;27;19942;-70
2023/12/26 07:41:51;;;;;;;;;;;;;;;;;;5128508;27;19935;-71
2023/12/26 07:44:17;;;;;;;;;;;;;;;;;;5128925;27;19970;-70
2023/12/26 07:46:43;;;;;;;;;;;;;;;;;;5108818;28;20074;-71
2023/12/26 07:49:09;;;;;;;;;;;;;;;;;;5129580;27;20029;-71
2023/12/26 07:51:35;;;;;;;;;;;;;;;;;;5127302;27;19973;-71
2023/12/26 07:54:01;;;;;;;;;;;;;;;;;;5110828;28;19920;-71
2023/12/26 07:56:26;;;;;;;;;;;;;;;;;;5128894;27;19927;-71
2023/12/26 07:58:53;;;;;;;;;;;;;;;;;;5098717;27;20018;-71
2023/12/26 08:01:18;;;;;;;;;;;;;;;;;;5110719;27;19930;-71
2023/12/26 08:03:44;;;;;;;;;;;;;;;;;;5112310;27;20288;-71
2023/12/26 08:06:10;;;;;;;;;;;;;;;;;;5090995;28;19947;-71
2023/12/26 08:08:36;;;;;;;;;;;;;;;;;;5117130;27;20647;-71
2023/12/26 08:11:02;;;;;;;;;;;;;;;;;;5089068;28;19924;-71
2023/12/26 08:13:28;;;;;;;;;;;;;;;;;;5115181;27;20004;-71
2023/12/26 08:15:54;;;;;;;;;;;;;;;;;;5112549;27;20343;-71
2023/12/26 08:18:20;;;;;;;;;;;;;;;;;;5092034;28;20655;-71
2023/12/26 08:20:46;;;;;;;;;;;;;;;;;;5117649;27;19920;-71
2023/12/26 08:23:12;;;;;;;;;;;;;;;;;;5114135;27;19927;-69
2023/12/26 08:25:38;;;;;;;;;;;;;;;;;;5097882;28;19920;-71
2023/12/26 08:28:04;;;;;;;;;;;;;;;;;;5106235;27;19938;-71
2023/12/26 08:30:30;;;;;;;;;;;;;;;;;;5107193;27;19967;-70
2023/12/26 08:32:56;;;;;;;;;;;;;;;;;;5108923;27;20436;-69
2023/12/26 08:35:22;;;;;;;;;;;;;;;;;;5112950;27;19928;-69
2023/12/26 08:37:48;;;;;;;;;;;;;;;;;;5110906;27;19976;-69
2023/12/26 08:40:14;;;;;;;;;;;;;;;;;;5090571;27;19927;-69
2023/12/26 08:42:40;;;;;;;;;;;;;;;;;;5108351;27;20369;-70
2023/12/26 08:45:06;;;;;;;;;;;;;;;;;;5100635;27;19934;-71
2023/12/26 08:47:32;;;;;;;;;;;;;;;;;;5106456;27;20344;-70
2023/12/26 08:49:59;;;;;;;;;;;;;;;;;;5104187;27;19934;-70
2023/12/26 08:52:25;;;;;;;;;;;;;;;;;;5092368;28;20269;-71
2023/12/26 08:54:51;;;;;;;;;;;;;;;;;;5107488;27;19924;-70
2023/12/26 08:57:17;;;;;;;;;;;;;;;;;;5111907;27;19920;-70
2023/12/26 08:59:43;;;;;;;;;;;;;;;;;;5111808;27;19928;-71
2023/12/26 09:02:09;;;;;;;;;;;;;;;;;;5090733;28;19961;-71
2023/12/26 09:04:35;;;;;;;;;;;;;;;;;;5099795;27;19927;-71
2023/12/26 09:07:02;;;;;;;;;;;;;;;;;;5100844;27;20007;-71
2023/12/26 09:09:28;;;;;;;;;;;;;;;;;;5118262;27;20298;-71
2023/12/26 09:11:56;;;;;;;;;;;;;;;;;;5087698;28;19920;-71
2023/12/26 09:14:21;;;;;;;;;;;;;;;;;;5107260;27;19963;-71
2023/12/26 09:16:47;;;;;;;;;;;;;;;;;;5111061;27;19920;-71
2023/12/26 09:19:13;;;;;;;;;;;;;;;;;;5108363;27;19923;-70
2023/12/26 09:21:39;;;;;;;;;;;;;;;;;;5111588;27;19920;-70
2023/12/26 09:24:05;;;;;;;;;;;;;;;;;;5109900;27;19931;-70
2023/12/26 09:26:31;;;;;;;;;;;;;;;;;;5091773;27;19924;-71
2023/12/26 09:28:57;;;;;;;;;;;;;;;;;;5107320;27;19969;-70
2023/12/26 09:31:23;;;;;;;;;;;;;;;;;;5093857;27;20373;-70
2023/12/26 09:33:49;;;;;;;;;;;;;;;;;;5090929;28;19926;-70
2023/12/26 09:36:15;;;;;;;;;;;;;;;;;;5105592;27;19996;-72
2023/12/26 09:38:42;;;;;;;;;;;;;;;;;;5119541;27;19935;-70
2023/12/26 09:41:08;;;;;;;;;;;;;;;;;;5112975;27;20441;-70
2023/12/26 09:43:34;;;;;;;;;;;;;;;;;;5093121;28;19927;-70
2023/12/26 09:46:01;;;;;;;;;;;;;;;;;;5094318;27;20006;-70
2023/12/26 09:48:27;;;;;;;;;;;;;;;;;;5108935;27;20575;-71
2023/12/26 09:50:53;;;;;;;;;;;;;;;;;;5108824;27;20011;-69
2023/12/26 09:53:18;;;;;;;;;;;;;;;;;;5109118;27;19920;-69
2023/12/26 09:55:44;;;;;;;;;;;;;;;;;;5111886;27;19931;-72
2023/12/26 09:58:10;;;;;;;;;;;;;;;;;;5110323;27;19924;-70
2023/12/26 10:00:36;;;;;;;;;;;;;;;;;;5112040;27;19924;-70
2023/12/26 10:03:02;;;;;;;;;;;;;;;;;;5111747;28;19938;-71
2023/12/26 10:05:28;;;;;;;;;;;;;;;;;;5085869;27;20005;-71
2023/12/26 10:07:54;;;;;;;;;;;;;;;;;;5100937;27;20337;-71
2023/12/26 10:10:20;;;;;;;;;;;;;;;;;;5109893;28;20352;-71
2023/12/26 10:12:46;;;;;;;;;;;;;;;;;;5085577;28;19946;-71
2023/12/26 10:15:12;;;;;;;;;;;;;;;;;;5090658;28;20731;-71
2023/12/26 10:17:38;;;;;;;;;;;;;;;;;;5118174;27;19927;-71
2023/12/26 10:20:04;;;;;;;;;;;;;;;;;;5088040;28;19966;-70
2023/12/26 10:22:31;;;;;;;;;;;;;;;;;;5114839;27;19923;-69
2023/12/26 10:25:00;;;;;;;;;;;;;;;;;;5081317;28;20371;-69
2023/12/26 10:27:25;;;;;;;;;;;;;;;;;;5088783;28;19940;-70
2023/12/26 10:29:51;;;;;;;;;;;;;;;;;;5102907;27;19927;-70
2023/12/26 10:32:17;;;;;;;;;;;;;;;;;;5102728;27;19927;-70
2023/12/26 10:34:43;;;;;;;;;;;;;;;;;;5086269;28;20518;-70
2023/12/26 10:37:09;;;;;;;;;;;;;;;;;;5108562;28;19930;-70
2023/12/26 10:39:35;;;;;;;;;;;;;;;;;;5109749;28;19923;-70
2023/12/26 10:42:01;;;;;;;;;;;;;;;;;;5097689;28;19920;-70
2023/12/26 10:47:12;;;;;;;;;;;;;;;;;;5111831;28;20548;-71
2023/12/26 10:49:40;;;;;;;;;;;;;;;;;;5112158;28;19931;-72
2023/12/26 10:52:07;;;;;;;;;;;;;;;;;;5111517;28;19969;-71
2023/12/26 10:54:33;;;;;;;;;;;;;;;;;;5119032;28;19927;-71
2023/12/26 10:56:59;;;;;;;;;;;;;;;;;;5119775;28;19920;-72
2023/12/26 13:52:14;;;;;;;;;;;;;;;;;;5087325;28;19970;-73
2023/12/26 13:54:40;;;;;;;;;;;;;;;;;;5071712;28;19931;-73
2023/12/26 13:57:06;;;;;;;;;;;;;;;;;;5089678;28;21271;-73
2023/12/26 13:59:32;;;;;;;;;;;;;;;;;;5085952;28;19959;-73
2023/12/26 14:01:58;;;;;;;;;;;;;;;;;;5088974;28;19963;-73
2023/12/26 14:04:24;;;;;;;;;;;;;;;;;;5086028;28;20396;-73
2023/12/26 14:06:51;;;;;;;;;;;;;;;;;;5086592;28;19960;-73
2023/12/26 14:09:17;;;;;;;;;;;;;;;;;;5087414;28;19928;-73
2023/12/26 14:11:43;;;;;;;;;;;;;;;;;;5082569;28;19934;-73
2023/12/26 14:14:09;;;;;;;;;;;;;;;;;;5081212;28;19921;-70
2023/12/26 14:16:35;;;;;;;;;;;;;;;;;;5078157;28;19924;-70
2023/12/26 14:19:01;;;;;;;;;;;;;;;;;;5070299;28;19927;-71
2023/12/26 14:21:27;;;;;;;;;;;;;;;;;;5088956;28;20564;-70
2023/12/26 14:23:53;;;;;;;;;;;;;;;;;;5088531;28;19931;-71
2023/12/26 14:26:19;;;;;;;;;;;;;;;;;;5089510;28;19928;-71
2023/12/26 14:28:45;;;;;;;;;;;;;;;;;;5089559;28;19964;-71
2023/12/26 14:31:11;;;;;;;;;;;;;;;;;;5087245;28;20007;-71
2023/12/26 14:33:37;;;;;;;;;;;;;;;;;;5084302;28;20358;-71
2023/12/26 14:36:03;;;;;;;;;;;;;;;;;;5097744;28;19945;-72
2023/12/26 14:38:29;;;;;;;;;;;;;;;;;;5094442;28;19923;-72
2023/12/26 14:40:56;;;;;;;;;;;;;;;;;;5096975;28;19969;-72
2023/12/26 14:43:22;;;;;;;;;;;;;;;;;;5088033;28;20074;-74
2023/12/26 14:45:48;;;;;;;;;;;;;;;;;;5088071;28;19920;-72
2023/12/26 14:48:14;;;;;;;;;;;;;;;;;;5090962;28;20305;-72
2023/12/26 14:50:40;;;;;;;;;;;;;;;;;;5095005;28;19927;-72
2023/12/26 14:53:06;;;;;;;;;;;;;;;;;;5086868;28;19920;-71
2023/12/26 14:55:32;;;;;;;;;;;;;;;;;;5090051;28;19924;-70
2023/12/26 14:57:58;;;;;;;;;;;;;;;;;;5071249;28;19928;-72
2023/12/26 15:00:24;;;;;;;;;;;;;;;;;;5086094;28;20246;-72
2023/12/26 15:02:50;;;;;;;;;;;;;;;;;;5073376;28;19920;-71
2023/12/26 15:05:16;;;;;;;;;;;;;;;;;;5082143;28;20308;-72
2023/12/26 15:07:42;;;;;;;;;;;;;;;;;;5103580;28;19940;-73
2023/12/26 15:10:08;;;;;;;;;;;;;;;;;;5115718;27;20345;-71
2023/12/26 15:12:34;;;;;;;;;;;;;;;;;;5072903;28;19924;-72
2023/12/26 15:15:00;;;;;;;;;;;;;;;;;;5107073;27;20707;-72
2023/12/26 15:17:25;;;;;;;;;;;;;;;;;;5094634;28;19930;-72
2023/12/26 15:19:51;;;;;;;;;;;;;;;;;;5100479;28;19948;-71
2023/12/26 15:22:17;;;;;;;;;;;;;;;;;;5098005;27;19923;-73
2023/12/26 15:24:43;;;;;;;;;;;;;;;;;;5113209;27;19990;-71
2023/12/26 15:27:09;;;;;;;;;;;;;;;;;;5089583;28;19976;-72
2023/12/26 15:29:35;;;;;;;;;;;;;;;;;;5073510;28;19920;-72
2023/12/26 15:32:01;;;;;;;;;;;;;;;;;;5087298;28;19942;-72
2023/12/26 15:34:27;;;;;;;;;;;;;;;;;;5110390;28;19927;-72
2023/12/26 15:36:53;;;;;;;;;;;;;;;;;;5099894;28;19920;-71
2023/12/26 15:39:19;;;;;;;;;;;;;;;;;;5119688;27;19919;-71
2023/12/26 15:41:45;;;;;;;;;;;;;;;;;;5103516;28;19923;-73
2023/12/26 15:44:11;;;;;;;;;;;;;;;;;;5103461;27;19924;-72
2023/12/26 15:46:37;;;;;;;;;;;;;;;;;;5087752;28;19928;-72
2023/12/26 15:49:03;;;;;;;;;;;;;;;;;;5091838;28;19919;-71
2023/12/26 15:51:29;;;;;;;;;;;;;;;;;;5069909;28;20292;-71
2023/12/26 15:53:55;;;;;;;;;;;;;;;;;;5091921;27;19923;-71
2023/12/26 15:56:23;;;;;;;;;;;;;;;;;;5083165;28;19944;-72
2023/12/26 15:58:49;;;;;;;;;;;;;;;;;;5110953;27;20202;-71
2023/12/26 16:01:20;;;;;;;;;;;;;;;;;;5104567;28;19941;-71
2023/12/26 16:03:46;;;;;;;;;;;;;;;;;;5101300;27;20261;-72
2023/12/26 16:06:12;;;;;;;;;;;;;;;;;;5091922;28;19934;-73
2023/12/26 16:08:38;;;;;;;;;;;;;;;;;;5091400;28;19928;-72
2023/12/26 16:11:04;;;;;;;;;;;;;;;;;;5084976;27;20304;-72
2023/12/26 16:13:30;;;;;;;;;;;;;;;;;;5087724;28;19924;-71
2023/12/26 16:15:56;;;;;;;;;;;;;;;;;;5106374;27;20418;-71
2023/12/26 16:18:22;;;;;;;;;;;;;;;;;;5106129;28;19959;-70
2023/12/26 16:20:48;;;;;;;;;;;;;;;;;;5103461;28;20004;-70
2023/12/26 16:23:14;;;;;;;;;;;;;;;;;;5110346;28;19927;-70
2023/12/26 16:25:42;;;;;;;;;;;;;;;;;;5108558;27;19924;-70
2023/12/26 16:28:08;;;;;;;;;;;;;;;;;;5092755;28;20020;-70
2023/12/26 16:30:34;;;;;;;;;;;;;;;;;;5109719;27;19984;-70
2023/12/26 16:33:00;;;;;;;;;;;;;;;;;;5100615;27;20355;-71
2023/12/26 16:35:26;;;;;;;;;;;;;;;;;;5107452;27;20392;-70
2023/12/26 16:37:52;;;;;;;;;;;;;;;;;;5091404;28;19919;-68
2023/12/26 16:40:18;;;;;;;;;;;;;;;;;;5109392;27;20373;-69
2023/12/26 16:42:44;;;;;;;;;;;;;;;;;;5108690;28;19945;-69
2023/12/26 16:45:10;;;;;;;;;;;;;;;;;;5086762;28;19923;-69
2023/12/26 16:47:36;;;;;;;;;;;;;;;;;;5092956;28;19931;-70
2023/12/26 16:50:02;;;;;;;;;;;;;;;;;;5087291;28;19924;-69
2023/12/26 16:52:28;;;;;;;;;;;;;;;;;;5103301;27;19928;-69
2023/12/26 16:54:54;;;;;;;;;;;;;;;;;;5113891;27;20372;-69
2023/12/26 16:57:21;;;;;;;;;;;;;;;;;;5109257;27;19927;-70
2023/12/26 16:59:48;;;;;;;;;;;;;;;;;;5108157;27;19928;-70
2023/12/26 17:02:14;;;;;;;;;;;;;;;;;;5081115;27;19931;-70
2023/12/26 17:04:40;;;;;;;;;;;;;;;;;;5087764;28;20412;-70
2023/12/26 17:07:06;;;;;;;;;;;;;;;;;;5100604;27;19927;-70
2023/12/26 17:09:32;;;;;;;;;;;;;;;;;;5101147;27;20015;-70
2023/12/26 17:11:58;;;;;;;;;;;;;;;;;;5084698;28;20024;-70
2023/12/26 17:14:24;;;;;;;;;;;;;;;;;;5090234;28;19966;-69
2023/12/26 17:16:50;;;;;;;;;;;;;;;;;;5092306;28;19943;-69
2023/12/26 17:19:15;;;;;;;;;;;;;;;;;;5084913;28;19920;-69
2023/12/26 17:21:41;;;;;;;;;;;;;;;;;;5096438;28;19920;-69
2023/12/26 17:24:07;;;;;;;;;;;;;;;;;;5103272;27;20276;-69
2023/12/26 17:26:33;;;;;;;;;;;;;;;;;;5089928;28;20022;-70
2023/12/26 17:28:59;;;;;;;;;;;;;;;;;;5091548;28;19977;-70
2023/12/26 17:31:25;;;;;;;;;;;;;;;;;;5103417;28;19924;-70
2023/12/26 17:33:51;;;;;;;;;;;;;;;;;;5101309;28;19952;-70
2023/12/26 17:36:17;;;;;;;;;;;;;;;;;;5107409;28;19928;-69
2023/12/26 17:38:43;;;;;;;;;;;;;;;;;;5107049;28;19927;-70
2023/12/26 17:41:09;;;;;;;;;;;;;;;;;;5110377;28;20375;-70
2023/12/26 17:43:35;;;;;;;;;;;;;;;;;;5090244;28;20602;-70
2023/12/26 17:46:01;;;;;;;;;;;;;;;;;;5091570;28;20298;-69
2023/12/26 17:48:27;;;;;;;;;;;;;;;;;;5073913;28;19940;-69
2023/12/26 17:50:53;;;;;;;;;;;;;;;;;;5086053;27;19924;-69
2023/12/26 17:53:19;;;;;;;;;;;;;;;;;;5093922;27;20005;-69
2023/12/26 17:55:45;;;;;;;;;;;;;;;;;;5108755;27;19931;-70
2023/12/26 17:58:11;;;;;;;;;;;;;;;;;;5087552;28;19962;-70
2023/12/26 18:00:37;;;;;;;;;;;;;;;;;;5089318;27;19996;-70
2023/12/26 18:03:03;;;;;;;;;;;;;;;;;;5105093;27;19924;-70
2023/12/26 18:05:29;;;;;;;;;;;;;;;;;;5109477;27;19924;-70
2023/12/26 18:07:55;;;;;;;;;;;;;;;;;;5087596;28;19931;-70
2023/12/26 18:10:21;;;;;;;;;;;;;;;;;;5109239;28;20345;-70
2023/12/26 18:12:47;;;;;;;;;;;;;;;;;;5107827;27;19927;-70
2023/12/26 18:15:13;;;;;;;;;;;;;;;;;;5082750;28;19930;-70
2023/12/26 18:17:39;;;;;;;;;;;;;;;;;;5108080;28;19923;-70
2023/12/26 18:20:04;;;;;;;;;;;;;;;;;;5104622;27;19923;-69
2023/12/26 18:22:30;;;;;;;;;;;;;;;;;;5104332;27;19923;-70
2023/12/26 18:24:56;;;;;;;;;;;;;;;;;;5105738;28;19928;-70
2023/12/26 18:27:22;;;;;;;;;;;;;;;;;;5091896;28;20076;-70
2023/12/26 18:29:48;;;;;;;;;;;;;;;;;;5102983;28;19924;-70
2023/12/26 18:32:14;;;;;;;;;;;;;;;;;;5088995;28;19923;-70
2023/12/26 18:34:40;;;;;;;;;;;;;;;;;;5090483;28;20011;-70
2023/12/26 18:37:06;;;;;;;;;;;;;;;;;;5111054;28;20011;-69
2023/12/26 18:39:32;;;;;;;;;;;;;;;;;;5089056;28;19924;-69
2023/12/26 18:41:58;;;;;;;;;;;;;;;;;;5097464;27;19920;-69
2023/12/26 18:44:24;;;;;;;;;;;;;;;;;;5104883;28;19965;-70
2023/12/26 18:46:50;;;;;;;;;;;;;;;;;;5113403;28;19928;-69
2023/12/26 18:49:16;;;;;;;;;;;;;;;;;;5116180;28;20369;-69
2023/12/26 18:51:43;;;;;;;;;;;;;;;;;;5084812;28;19923;-70
2023/12/26 18:54:09;;;;;;;;;;;;;;;;;;5099250;28;19923;-70
2023/12/26 18:56:35;;;;;;;;;;;;;;;;;;5122096;22;19924;-66
2023/12/26 18:59:02;;;;;;;;;;;;;;;;;;5111411;28;20653;-66
2023/12/26 19:01:28;;;;;;;;;;;;;;;;;;5102043;28;20308;-66
2023/12/26 19:03:54;;;;;;;;;;;;;;;;;;5110885;28;20021;-67
2023/12/26 19:06:20;;;;;;;;;;;;;;;;;;5109156;28;20664;-66
2023/12/26 19:08:45;;;;;;;;;;;;;;;;;;5110456;28;19924;-66
2023/12/26 19:11:11;;;;;;;;;;;;;;;;;;5083702;28;20318;-65
2023/12/26 19:13:37;;;;;;;;;;;;;;;;;;5102405;28;20386;-66
2023/12/26 19:16:04;;;;;;;;;;;;;;;;;;5101963;28;19935;-66
2023/12/26 19:18:29;;;;;;;;;;;;;;;;;;5101707;28;20368;-65
2023/12/26 19:20:55;;;;;;;;;;;;;;;;;;5099939;28;19938;-66
2023/12/26 19:23:21;;;;;;;;;;;;;;;;;;5097721;28;19943;-66
2023/12/26 19:25:47;;;;;;;;;;;;;;;;;;5103108;28;19975;-68
2023/12/26 19:28:14;;;;;;;;;;;;;;;;;;5097527;28;19974;-66
2023/12/26 19:30:40;;;;;;;;;;;;;;;;;;5100240;28;19942;-66
2023/12/26 19:33:06;;;;;;;;;;;;;;;;;;5108531;28;19923;-65